sensor_id;sensor_type;location;lat;lon;timestamp;P1;durP1;ratioP1;P2;durP2;ratioP2
68608;SDS011;55581;46.718;7.690;2022-09-03T00:00:16;3.60;;;1.48;;
68608;SDS011;55581;46.718;7.690;2022-09-03T00:13:09;5.40;;;1.33;;
68608;SDS011;55581;46.718;7.690;2022-09-03T00:15:39;3.15;;;1.20;;
68608;SDS011;55581;46.718;7.690;2022-09-03T00:18:05;4.33;;;1.57;;
68608;SDS011;55581;46.718;7.690;2022-09-03T00:20:46;3.50;;;1.25;;
68608;SDS011;55581;46.718;7.690;2022-09-03T00:23:17;4.10;;;1.50;;
68608;SDS011;55581;46.718;7.690;2022-09-03T00:26:02;3.93;;;1.30;;
68608;SDS011;55581;46.718;7.690;2022-09-03T00:28:32;4.25;;;1.50;;
68608;SDS011;55581;46.718;7.690;2022-09-03T00:33:54;4.70;;;1.63;;
68608;SDS011;55581;46.718;7.690;2022-09-03T00:36:37;4.07;;;1.48;;
68608;SDS011;55581;46.718;7.690;2022-09-03T00:39:08;4.23;;;1.43;;
68608;SDS011;55581;46.718;7.690;2022-09-03T00:41:36;4.13;;;1.52;;
68608;SDS011;55581;46.718;7.690;2022-09-03T00:49:11;4.88;;;1.90;;
68608;SDS011;55581;46.718;7.690;2022-09-03T00:51:43;4.93;;;1.88;;
68608;SDS011;55581;46.718;7.690;2022-09-03T00:57:18;4.40;;;2.00;;
68608;SDS011;55581;46.718;7.690;2022-09-03T01:00:03;4.85;;;2.20;;
68608;SDS011;55581;46.718;7.690;2022-09-03T01:19:43;5.15;;;2.10;;
68608;SDS011;55581;46.718;7.690;2022-09-03T01:30:37;3.80;;;1.45;;
68608;SDS011;55581;46.718;7.690;2022-09-03T01:33:25;4.10;;;1.88;;
68608;SDS011;55581;46.718;7.690;2022-09-03T01:36:04;3.92;;;1.80;;
68608;SDS011;55581;46.718;7.690;2022-09-03T01:47:02;3.67;;;1.70;;
68608;SDS011;55581;46.718;7.690;2022-09-03T01:52:38;5.80;;;1.67;;
68608;SDS011;55581;46.718;7.690;2022-09-03T02:00:45;5.65;;;1.77;;
68608;SDS011;55581;46.718;7.690;2022-09-03T02:03:17;7.53;;;1.50;;
68608;SDS011;55581;46.718;7.690;2022-09-03T02:05:43;6.27;;;1.90;;
68608;SDS011;55581;46.718;7.690;2022-09-03T02:08:11;3.97;;;1.88;;
68608;SDS011;55581;46.718;7.690;2022-09-03T02:10:41;4.80;;;1.80;;
68608;SDS011;55581;46.718;7.690;2022-09-03T02:13:14;4.13;;;1.70;;
68608;SDS011;55581;46.718;7.690;2022-09-03T02:16:13;4.78;;;2.10;;
68608;SDS011;55581;46.718;7.690;2022-09-03T02:19:03;4.72;;;1.83;;
68608;SDS011;55581;46.718;7.690;2022-09-03T02:21:36;5.55;;;2.05;;
68608;SDS011;55581;46.718;7.690;2022-09-03T02:24:03;6.80;;;2.13;;
68608;SDS011;55581;46.718;7.690;2022-09-03T02:26:30;6.65;;;1.95;;
68608;SDS011;55581;46.718;7.690;2022-09-03T02:28:55;4.85;;;2.00;;
68608;SDS011;55581;46.718;7.690;2022-09-03T02:31:21;4.57;;;1.95;;
68608;SDS011;55581;46.718;7.690;2022-09-03T02:33:48;4.10;;;1.90;;
68608;SDS011;55581;46.718;7.690;2022-09-03T02:36:16;4.65;;;2.33;;
68608;SDS011;55581;46.718;7.690;2022-09-03T02:38:45;6.45;;;2.38;;
68608;SDS011;55581;46.718;7.690;2022-09-03T02:41:11;5.05;;;2.10;;
68608;SDS011;55581;46.718;7.690;2022-09-03T02:43:41;4.07;;;1.93;;
68608;SDS011;55581;46.718;7.690;2022-09-03T02:46:21;5.38;;;2.30;;
68608;SDS011;55581;46.718;7.690;2022-09-03T02:48:50;4.13;;;2.00;;
68608;SDS011;55581;46.718;7.690;2022-09-03T02:51:19;4.20;;;2.10;;
68608;SDS011;55581;46.718;7.690;2022-09-03T02:53:45;4.68;;;2.08;;
68608;SDS011;55581;46.718;7.690;2022-09-03T02:56:10;3.90;;;1.90;;
68608;SDS011;55581;46.718;7.690;2022-09-03T02:58:36;4.55;;;2.20;;
68608;SDS011;55581;46.718;7.690;2022-09-03T03:01:01;4.53;;;1.90;;
68608;SDS011;55581;46.718;7.690;2022-09-03T03:03:28;4.00;;;2.03;;
68608;SDS011;55581;46.718;7.690;2022-09-03T03:05:57;5.43;;;2.23;;
68608;SDS011;55581;46.718;7.690;2022-09-03T03:08:26;5.53;;;2.72;;
68608;SDS011;55581;46.718;7.690;2022-09-03T03:10:56;6.40;;;2.13;;
68608;SDS011;55581;46.718;7.690;2022-09-03T03:13:23;4.38;;;2.25;;
68608;SDS011;55581;46.718;7.690;2022-09-03T03:15:49;4.35;;;2.05;;
68608;SDS011;55581;46.718;7.690;2022-09-03T03:18:15;5.77;;;2.57;;
68608;SDS011;55581;46.718;7.690;2022-09-03T03:20:43;5.90;;;2.60;;
68608;SDS011;55581;46.718;7.690;2022-09-03T03:23:08;6.32;;;2.65;;
68608;SDS011;55581;46.718;7.690;2022-09-03T03:25:35;6.63;;;2.70;;
68608;SDS011;55581;46.718;7.690;2022-09-03T03:28:02;6.25;;;2.90;;
68608;SDS011;55581;46.718;7.690;2022-09-03T03:30:29;7.10;;;2.72;;
68608;SDS011;55581;46.718;7.690;2022-09-03T03:32:54;7.77;;;2.30;;
68608;SDS011;55581;46.718;7.690;2022-09-03T03:35:20;5.65;;;2.90;;
68608;SDS011;55581;46.718;7.690;2022-09-03T03:37:46;6.22;;;2.72;;
68608;SDS011;55581;46.718;7.690;2022-09-03T03:40:12;5.80;;;2.50;;
68608;SDS011;55581;46.718;7.690;2022-09-03T03:42:38;7.15;;;2.75;;
68608;SDS011;55581;46.718;7.690;2022-09-03T03:45:04;7.30;;;2.40;;
68608;SDS011;55581;46.718;7.690;2022-09-03T03:47:30;4.90;;;2.20;;
68608;SDS011;55581;46.718;7.690;2022-09-03T03:49:57;5.97;;;2.95;;
68608;SDS011;55581;46.718;7.690;2022-09-03T03:52:24;5.90;;;2.33;;
68608;SDS011;55581;46.718;7.690;2022-09-03T03:54:50;5.80;;;2.58;;
68608;SDS011;55581;46.718;7.690;2022-09-03T03:57:16;7.23;;;2.53;;
68608;SDS011;55581;46.718;7.690;2022-09-03T03:59:45;6.20;;;2.80;;
68608;SDS011;55581;46.718;7.690;2022-09-03T04:02:11;8.38;;;2.72;;
68608;SDS011;55581;46.718;7.690;2022-09-03T04:04:37;4.90;;;2.50;;
68608;SDS011;55581;46.718;7.690;2022-09-03T04:07:03;5.30;;;2.50;;
68608;SDS011;55581;46.718;7.690;2022-09-03T04:09:28;8.57;;;2.33;;
68608;SDS011;55581;46.718;7.690;2022-09-03T04:11:54;11.33;;;2.60;;
68608;SDS011;55581;46.718;7.690;2022-09-03T04:14:22;7.70;;;2.90;;
68608;SDS011;55581;46.718;7.690;2022-09-03T04:16:48;5.53;;;2.67;;
68608;SDS011;55581;46.718;7.690;2022-09-03T04:19:15;5.00;;;2.60;;
68608;SDS011;55581;46.718;7.690;2022-09-03T04:21:41;8.35;;;2.55;;
68608;SDS011;55581;46.718;7.690;2022-09-03T04:24:09;6.82;;;2.30;;
68608;SDS011;55581;46.718;7.690;2022-09-03T04:26:34;5.77;;;2.40;;
68608;SDS011;55581;46.718;7.690;2022-09-03T04:29:07;6.50;;;2.85;;
68608;SDS011;55581;46.718;7.690;2022-09-03T04:31:34;7.15;;;2.97;;
68608;SDS011;55581;46.718;7.690;2022-09-03T04:34:00;4.60;;;2.53;;
68608;SDS011;55581;46.718;7.690;2022-09-03T04:36:27;4.87;;;2.63;;
68608;SDS011;55581;46.718;7.690;2022-09-03T04:38:55;5.43;;;2.53;;
68608;SDS011;55581;46.718;7.690;2022-09-03T04:41:27;5.90;;;2.30;;
68608;SDS011;55581;46.718;7.690;2022-09-03T04:43:55;6.22;;;2.40;;
68608;SDS011;55581;46.718;7.690;2022-09-03T04:46:22;5.57;;;2.08;;
68608;SDS011;55581;46.718;7.690;2022-09-03T04:48:50;5.30;;;2.33;;
68608;SDS011;55581;46.718;7.690;2022-09-03T04:51:21;4.90;;;2.00;;
68608;SDS011;55581;46.718;7.690;2022-09-03T04:53:51;4.68;;;2.00;;
68608;SDS011;55581;46.718;7.690;2022-09-03T04:56:20;4.78;;;2.10;;
68608;SDS011;55581;46.718;7.690;2022-09-03T04:58:48;5.50;;;2.03;;
68608;SDS011;55581;46.718;7.690;2022-09-03T05:01:19;5.90;;;2.20;;
68608;SDS011;55581;46.718;7.690;2022-09-03T05:03:45;4.55;;;2.38;;
68608;SDS011;55581;46.718;7.690;2022-09-03T05:06:11;6.30;;;2.25;;
68608;SDS011;55581;46.718;7.690;2022-09-03T05:08:38;4.55;;;2.67;;
68608;SDS011;55581;46.718;7.690;2022-09-03T05:11:05;4.97;;;2.47;;
68608;SDS011;55581;46.718;7.690;2022-09-03T05:13:34;7.47;;;2.30;;
68608;SDS011;55581;46.718;7.690;2022-09-03T05:16:05;4.07;;;2.10;;
68608;SDS011;55581;46.718;7.690;2022-09-03T05:18:32;5.22;;;2.20;;
68608;SDS011;55581;46.718;7.690;2022-09-03T05:21:03;6.03;;;2.08;;
68608;SDS011;55581;46.718;7.690;2022-09-03T05:23:31;4.53;;;2.10;;
68608;SDS011;55581;46.718;7.690;2022-09-03T05:26:01;4.65;;;2.30;;
68608;SDS011;55581;46.718;7.690;2022-09-03T05:28:29;4.18;;;2.03;;
68608;SDS011;55581;46.718;7.690;2022-09-03T05:33:23;6.68;;;2.42;;
68608;SDS011;55581;46.718;7.690;2022-09-03T05:35:49;4.80;;;2.50;;
68608;SDS011;55581;46.718;7.690;2022-09-03T05:38:14;5.20;;;2.00;;
68608;SDS011;55581;46.718;7.690;2022-09-03T05:40:41;7.28;;;2.20;;
68608;SDS011;55581;46.718;7.690;2022-09-03T05:43:06;5.37;;;2.30;;
68608;SDS011;55581;46.718;7.690;2022-09-03T05:45:31;3.90;;;2.07;;
68608;SDS011;55581;46.718;7.690;2022-09-03T05:47:58;5.15;;;2.47;;
68608;SDS011;55581;46.718;7.690;2022-09-03T05:50:25;4.40;;;2.05;;
68608;SDS011;55581;46.718;7.690;2022-09-03T05:55:25;4.90;;;2.20;;
68608;SDS011;55581;46.718;7.690;2022-09-03T05:57:52;5.50;;;2.70;;
68608;SDS011;55581;46.718;7.690;2022-09-03T06:00:18;4.88;;;1.73;;
68608;SDS011;55581;46.718;7.690;2022-09-03T06:02:50;4.50;;;2.30;;
68608;SDS011;55581;46.718;7.690;2022-09-03T06:05:17;4.00;;;1.97;;
68608;SDS011;55581;46.718;7.690;2022-09-03T06:07:43;4.72;;;1.88;;
68608;SDS011;55581;46.718;7.690;2022-09-03T06:10:09;5.70;;;2.30;;
68608;SDS011;55581;46.718;7.690;2022-09-03T06:12:36;4.63;;;2.10;;
68608;SDS011;55581;46.718;7.690;2022-09-03T06:15:02;3.85;;;2.00;;
68608;SDS011;55581;46.718;7.690;2022-09-03T06:17:29;3.07;;;1.10;;
68608;SDS011;55581;46.718;7.690;2022-09-03T06:19:55;3.92;;;1.42;;
68608;SDS011;55581;46.718;7.690;2022-09-03T06:22:21;3.60;;;1.50;;
68608;SDS011;55581;46.718;7.690;2022-09-03T06:24:56;3.08;;;1.25;;
68608;SDS011;55581;46.718;7.690;2022-09-03T06:27:21;3.87;;;1.43;;
68608;SDS011;55581;46.718;7.690;2022-09-03T06:29:47;2.58;;;0.80;;
68608;SDS011;55581;46.718;7.690;2022-09-03T06:32:12;2.93;;;0.90;;
68608;SDS011;55581;46.718;7.690;2022-09-03T06:34:39;3.10;;;1.23;;
68608;SDS011;55581;46.718;7.690;2022-09-03T06:37:04;3.27;;;1.33;;
68608;SDS011;55581;46.718;7.690;2022-09-03T06:39:30;4.00;;;1.60;;
68608;SDS011;55581;46.718;7.690;2022-09-03T06:41:56;3.70;;;1.37;;
68608;SDS011;55581;46.718;7.690;2022-09-03T06:44:21;3.97;;;1.70;;
68608;SDS011;55581;46.718;7.690;2022-09-03T06:46:46;6.30;;;2.15;;
68608;SDS011;55581;46.718;7.690;2022-09-03T06:49:12;5.63;;;1.90;;
68608;SDS011;55581;46.718;7.690;2022-09-03T06:51:38;5.10;;;2.05;;
68608;SDS011;55581;46.718;7.690;2022-09-03T06:54:08;3.85;;;1.75;;
68608;SDS011;55581;46.718;7.690;2022-09-03T06:56:36;4.05;;;1.70;;
68608;SDS011;55581;46.718;7.690;2022-09-03T06:59:04;4.43;;;2.20;;
68608;SDS011;55581;46.718;7.690;2022-09-03T07:01:34;4.93;;;2.10;;
68608;SDS011;55581;46.718;7.690;2022-09-03T07:04:02;4.72;;;2.10;;
68608;SDS011;55581;46.718;7.690;2022-09-03T07:06:30;5.65;;;1.75;;
68608;SDS011;55581;46.718;7.690;2022-09-03T07:08:57;3.78;;;1.77;;
68608;SDS011;55581;46.718;7.690;2022-09-03T07:11:24;4.80;;;1.77;;
68608;SDS011;55581;46.718;7.690;2022-09-03T07:13:51;5.20;;;1.98;;
68608;SDS011;55581;46.718;7.690;2022-09-03T07:16:22;4.10;;;1.65;;
68608;SDS011;55581;46.718;7.690;2022-09-03T07:18:51;4.18;;;1.55;;
68608;SDS011;55581;46.718;7.690;2022-09-03T07:21:18;5.53;;;1.80;;
68608;SDS011;55581;46.718;7.690;2022-09-03T07:23:45;4.90;;;1.57;;
68608;SDS011;55581;46.718;7.690;2022-09-03T07:26:17;3.83;;;1.40;;
68608;SDS011;55581;46.718;7.690;2022-09-03T07:28:44;5.60;;;2.05;;
68608;SDS011;55581;46.718;7.690;2022-09-03T07:31:15;4.95;;;1.90;;
68608;SDS011;55581;46.718;7.690;2022-09-03T07:33:54;3.72;;;1.77;;
68608;SDS011;55581;46.718;7.690;2022-09-03T07:36:20;3.83;;;1.77;;
68608;SDS011;55581;46.718;7.690;2022-09-03T07:38:47;3.58;;;1.45;;
68608;SDS011;55581;46.718;7.690;2022-09-03T07:41:16;4.28;;;1.70;;
68608;SDS011;55581;46.718;7.690;2022-09-03T07:43:42;3.33;;;1.73;;
68608;SDS011;55581;46.718;7.690;2022-09-03T07:46:20;4.15;;;1.77;;
68608;SDS011;55581;46.718;7.690;2022-09-03T07:48:51;3.47;;;1.60;;
68608;SDS011;55581;46.718;7.690;2022-09-03T07:51:22;3.45;;;1.48;;
68608;SDS011;55581;46.718;7.690;2022-09-03T07:53:50;5.88;;;1.85;;
68608;SDS011;55581;46.718;7.690;2022-09-03T07:56:17;2.93;;;1.40;;
68608;SDS011;55581;46.718;7.690;2022-09-03T07:58:42;3.50;;;1.63;;
68608;SDS011;55581;46.718;7.690;2022-09-03T08:01:09;5.00;;;1.60;;
68608;SDS011;55581;46.718;7.690;2022-09-03T08:03:36;4.35;;;1.80;;
68608;SDS011;55581;46.718;7.690;2022-09-03T08:06:03;3.95;;;1.90;;
68608;SDS011;55581;46.718;7.690;2022-09-03T08:08:31;3.47;;;1.40;;
68608;SDS011;55581;46.718;7.690;2022-09-03T08:11:10;4.00;;;1.65;;
68608;SDS011;55581;46.718;7.690;2022-09-03T08:13:44;4.13;;;1.90;;
68608;SDS011;55581;46.718;7.690;2022-09-03T08:16:11;6.80;;;1.65;;
68608;SDS011;55581;46.718;7.690;2022-09-03T08:18:39;4.20;;;1.70;;
68608;SDS011;55581;46.718;7.690;2022-09-03T08:21:06;6.93;;;2.10;;
68608;SDS011;55581;46.718;7.690;2022-09-03T08:23:38;4.55;;;1.50;;
68608;SDS011;55581;46.718;7.690;2022-09-03T08:26:05;4.00;;;1.83;;
68608;SDS011;55581;46.718;7.690;2022-09-03T08:28:32;4.50;;;1.38;;
68608;SDS011;55581;46.718;7.690;2022-09-03T08:33:41;3.95;;;1.67;;
68608;SDS011;55581;46.718;7.690;2022-09-03T08:36:15;2.97;;;1.30;;
68608;SDS011;55581;46.718;7.690;2022-09-03T08:38:58;3.37;;;1.47;;
68608;SDS011;55581;46.718;7.690;2022-09-03T08:46:59;5.47;;;1.90;;
68608;SDS011;55581;46.718;7.690;2022-09-03T09:03:24;4.10;;;1.75;;
68608;SDS011;55581;46.718;7.690;2022-09-03T09:06:22;3.27;;;1.30;;
68608;SDS011;55581;46.718;7.690;2022-09-03T09:23:12;4.32;;;1.05;;
68608;SDS011;55581;46.718;7.690;2022-09-03T09:25:47;3.10;;;1.25;;
68608;SDS011;55581;46.718;7.690;2022-09-03T09:28:21;3.35;;;0.93;;
68608;SDS011;55581;46.718;7.690;2022-09-03T09:30:50;2.65;;;0.90;;
68608;SDS011;55581;46.718;7.690;2022-09-03T09:33:19;2.77;;;0.80;;
68608;SDS011;55581;46.718;7.690;2022-09-03T09:35:45;2.80;;;0.90;;
68608;SDS011;55581;46.718;7.690;2022-09-03T09:38:11;1.95;;;0.63;;
68608;SDS011;55581;46.718;7.690;2022-09-03T09:40:38;2.72;;;1.00;;
68608;SDS011;55581;46.718;7.690;2022-09-03T09:43:12;3.00;;;1.00;;
68608;SDS011;55581;46.718;7.690;2022-09-03T09:45:46;2.10;;;0.75;;
68608;SDS011;55581;46.718;7.690;2022-09-03T09:48:19;2.67;;;1.20;;
68608;SDS011;55581;46.718;7.690;2022-09-03T09:50:46;2.83;;;0.88;;
68608;SDS011;55581;46.718;7.690;2022-09-03T09:53:11;2.50;;;0.90;;
68608;SDS011;55581;46.718;7.690;2022-09-03T09:55:50;2.55;;;0.80;;
68608;SDS011;55581;46.718;7.690;2022-09-03T09:58:23;2.65;;;1.00;;
68608;SDS011;55581;46.718;7.690;2022-09-03T10:03:48;4.53;;;1.03;;
68608;SDS011;55581;46.718;7.690;2022-09-03T10:06:14;2.25;;;0.77;;
68608;SDS011;55581;46.718;7.690;2022-09-03T10:09:06;3.05;;;0.90;;
68608;SDS011;55581;46.718;7.690;2022-09-03T10:11:43;2.80;;;0.90;;
68608;SDS011;55581;46.718;7.690;2022-09-03T10:14:37;2.22;;;0.80;;
68608;SDS011;55581;46.718;7.690;2022-09-03T10:17:29;2.17;;;0.73;;
68608;SDS011;55581;46.718;7.690;2022-09-03T10:23:45;2.45;;;0.70;;
68608;SDS011;55581;46.718;7.690;2022-09-03T10:26:03;2.72;;;0.90;;
68608;SDS011;55581;46.718;7.690;2022-09-03T10:28:34;2.78;;;1.02;;
68608;SDS011;55581;46.718;7.690;2022-09-03T10:33:59;3.15;;;0.90;;
68608;SDS011;55581;46.718;7.690;2022-09-03T10:39:40;2.55;;;0.85;;
68608;SDS011;55581;46.718;7.690;2022-09-03T11:02:43;3.50;;;1.23;;
68608;SDS011;55581;46.718;7.690;2022-09-03T11:05:28;4.15;;;1.50;;
68608;SDS011;55581;46.718;7.690;2022-09-03T11:08:19;3.72;;;1.30;;
68608;SDS011;55581;46.718;7.690;2022-09-03T11:10:50;3.90;;;1.70;;
68608;SDS011;55581;46.718;7.690;2022-09-03T11:13:21;3.73;;;1.30;;
68608;SDS011;55581;46.718;7.690;2022-09-03T11:15:55;4.68;;;1.42;;
68608;SDS011;55581;46.718;7.690;2022-09-03T11:21:09;4.43;;;1.13;;
68608;SDS011;55581;46.718;7.690;2022-09-03T11:23:42;4.75;;;1.30;;
68608;SDS011;55581;46.718;7.690;2022-09-03T11:26:11;3.90;;;1.30;;
68608;SDS011;55581;46.718;7.690;2022-09-03T11:34:31;3.70;;;1.20;;
68608;SDS011;55581;46.718;7.690;2022-09-03T11:37:22;4.38;;;1.58;;
68608;SDS011;55581;46.718;7.690;2022-09-03T11:40:10;5.87;;;1.53;;
68608;SDS011;55581;46.718;7.690;2022-09-03T11:42:41;4.05;;;1.27;;
68608;SDS011;55581;46.718;7.690;2022-09-03T11:45:22;4.55;;;1.50;;
68608;SDS011;55581;46.718;7.690;2022-09-03T11:47:48;4.65;;;1.67;;
68608;SDS011;55581;46.718;7.690;2022-09-03T11:56:00;5.45;;;1.35;;
68608;SDS011;55581;46.718;7.690;2022-09-03T11:58:32;3.20;;;1.30;;
68608;SDS011;55581;46.718;7.690;2022-09-03T12:01:01;3.55;;;1.10;;
68608;SDS011;55581;46.718;7.690;2022-09-03T12:03:27;3.85;;;1.40;;
68608;SDS011;55581;46.718;7.690;2022-09-03T12:06:12;4.43;;;1.40;;
68608;SDS011;55581;46.718;7.690;2022-09-03T12:17:27;3.40;;;0.90;;
68608;SDS011;55581;46.718;7.690;2022-09-03T12:20:12;4.90;;;1.10;;
68608;SDS011;55581;46.718;7.690;2022-09-03T12:22:40;2.65;;;1.05;;
68608;SDS011;55581;46.718;7.690;2022-09-03T12:25:12;2.40;;;1.00;;
68608;SDS011;55581;46.718;7.690;2022-09-03T12:27:43;2.83;;;0.88;;
68608;SDS011;55581;46.718;7.690;2022-09-03T12:30:14;4.20;;;1.40;;
68608;SDS011;55581;46.718;7.690;2022-09-03T12:32:41;2.87;;;1.20;;
68608;SDS011;55581;46.718;7.690;2022-09-03T12:35:14;3.63;;;1.13;;
68608;SDS011;55581;46.718;7.690;2022-09-03T12:37:42;3.30;;;1.00;;
68608;SDS011;55581;46.718;7.690;2022-09-03T12:40:19;2.55;;;1.00;;
68608;SDS011;55581;46.718;7.690;2022-09-03T12:42:46;2.97;;;1.20;;
68608;SDS011;55581;46.718;7.690;2022-09-03T12:45:13;3.63;;;1.25;;
68608;SDS011;55581;46.718;7.690;2022-09-03T12:47:41;3.70;;;1.45;;
68608;SDS011;55581;46.718;7.690;2022-09-03T12:50:17;4.00;;;1.30;;
68608;SDS011;55581;46.718;7.690;2022-09-03T12:52:55;3.43;;;1.20;;
68608;SDS011;55581;46.718;7.690;2022-09-03T13:00:23;2.73;;;0.93;;
68608;SDS011;55581;46.718;7.690;2022-09-03T13:02:57;4.20;;;1.30;;
68608;SDS011;55581;46.718;7.690;2022-09-03T13:08:39;2.72;;;1.30;;
68608;SDS011;55581;46.718;7.690;2022-09-03T13:11:09;4.03;;;0.90;;
68608;SDS011;55581;46.718;7.690;2022-09-03T13:13:35;4.25;;;1.25;;
68608;SDS011;55581;46.718;7.690;2022-09-03T13:18:38;2.80;;;1.20;;
68608;SDS011;55581;46.718;7.690;2022-09-03T13:27:02;2.65;;;1.00;;
68608;SDS011;55581;46.718;7.690;2022-09-03T13:38:07;2.45;;;1.10;;
68608;SDS011;55581;46.718;7.690;2022-09-03T13:41:05;2.78;;;1.02;;
68608;SDS011;55581;46.718;7.690;2022-09-03T13:43:46;3.13;;;1.10;;
68608;SDS011;55581;46.718;7.690;2022-09-03T13:49:38;3.13;;;1.10;;
68608;SDS011;55581;46.718;7.690;2022-09-03T13:52:42;2.80;;;1.30;;
68608;SDS011;55581;46.718;7.690;2022-09-03T13:55:11;2.40;;;1.02;;
68608;SDS011;55581;46.718;7.690;2022-09-03T13:57:45;3.15;;;0.90;;
68608;SDS011;55581;46.718;7.690;2022-09-03T14:00:22;2.60;;;1.00;;
68608;SDS011;55581;46.718;7.690;2022-09-03T14:02:54;3.30;;;1.10;;
68608;SDS011;55581;46.718;7.690;2022-09-03T14:08:34;2.92;;;0.93;;
68608;SDS011;55581;46.718;7.690;2022-09-03T14:17:01;2.53;;;1.13;;
68608;SDS011;55581;46.718;7.690;2022-09-03T14:20:03;2.70;;;1.30;;
68608;SDS011;55581;46.718;7.690;2022-09-03T14:25:09;3.00;;;1.30;;
68608;SDS011;55581;46.718;7.690;2022-09-03T14:27:39;2.77;;;0.93;;
68608;SDS011;55581;46.718;7.690;2022-09-03T14:30:06;3.90;;;1.20;;
68608;SDS011;55581;46.718;7.690;2022-09-03T14:43:36;2.65;;;1.30;;
68608;SDS011;55581;46.718;7.690;2022-09-03T14:59:50;3.63;;;1.30;;
68608;SDS011;55581;46.718;7.690;2022-09-03T15:05:09;3.08;;;1.15;;
68608;SDS011;55581;46.718;7.690;2022-09-03T15:22:10;3.80;;;1.20;;
68608;SDS011;55581;46.718;7.690;2022-09-03T15:24:42;2.67;;;1.08;;
68608;SDS011;55581;46.718;7.690;2022-09-03T15:30:16;5.10;;;1.00;;
68608;SDS011;55581;46.718;7.690;2022-09-03T15:33:19;3.40;;;1.50;;
68608;SDS011;55581;46.718;7.690;2022-09-03T15:40:56;3.63;;;1.55;;
68608;SDS011;55581;46.718;7.690;2022-09-03T15:43:32;3.13;;;1.30;;
68608;SDS011;55581;46.718;7.690;2022-09-03T15:54:35;3.38;;;1.48;;
68608;SDS011;55581;46.718;7.690;2022-09-03T16:02:30;3.27;;;1.10;;
68608;SDS011;55581;46.718;7.690;2022-09-03T16:16:02;3.70;;;1.80;;
68608;SDS011;55581;46.718;7.690;2022-09-03T16:18:37;2.97;;;1.30;;
68608;SDS011;55581;46.718;7.690;2022-09-03T16:21:18;4.35;;;1.30;;
68608;SDS011;55581;46.718;7.690;2022-09-03T16:23:54;2.80;;;1.33;;
68608;SDS011;55581;46.718;7.690;2022-09-03T17:10:40;4.22;;;1.55;;
68608;SDS011;55581;46.718;7.690;2022-09-03T17:18:49;9.33;;;1.50;;
68608;SDS011;55581;46.718;7.690;2022-09-03T17:26:46;3.10;;;1.27;;
68608;SDS011;55581;46.718;7.690;2022-09-03T17:35:16;4.38;;;1.70;;
68608;SDS011;55581;46.718;7.690;2022-09-03T17:49:53;3.47;;;1.00;;
68608;SDS011;55581;46.718;7.690;2022-09-03T17:57:56;3.50;;;1.42;;
68608;SDS011;55581;46.718;7.690;2022-09-03T18:00:52;4.93;;;2.00;;
68608;SDS011;55581;46.718;7.690;2022-09-03T18:14:37;6.30;;;2.17;;
68608;SDS011;55581;46.718;7.690;2022-09-03T18:17:19;3.97;;;1.65;;
68608;SDS011;55581;46.718;7.690;2022-09-03T18:19:54;3.75;;;1.90;;
68608;SDS011;55581;46.718;7.690;2022-09-03T18:25:36;3.88;;;1.80;;
68608;SDS011;55581;46.718;7.690;2022-09-03T18:28:31;3.63;;;1.60;;
68608;SDS011;55581;46.718;7.690;2022-09-03T18:31:21;4.68;;;1.90;;
68608;SDS011;55581;46.718;7.690;2022-09-03T18:34:07;9.05;;;1.90;;
68608;SDS011;55581;46.718;7.690;2022-09-03T18:36:51;3.85;;;1.65;;
68608;SDS011;55581;46.718;7.690;2022-09-03T18:39:35;6.15;;;2.50;;
68608;SDS011;55581;46.718;7.690;2022-09-03T18:51:35;4.13;;;1.77;;
68608;SDS011;55581;46.718;7.690;2022-09-03T19:00:34;4.05;;;1.48;;
68608;SDS011;55581;46.718;7.690;2022-09-03T19:06:29;3.72;;;1.38;;
68608;SDS011;55581;46.718;7.690;2022-09-03T19:09:40;4.13;;;1.33;;
68608;SDS011;55581;46.718;7.690;2022-09-03T19:12:41;4.60;;;1.27;;
68608;SDS011;55581;46.718;7.690;2022-09-03T19:15:38;3.92;;;1.13;;
68608;SDS011;55581;46.718;7.690;2022-09-03T19:18:53;3.28;;;1.48;;
68608;SDS011;55581;46.718;7.690;2022-09-03T19:21:58;4.68;;;1.67;;
68608;SDS011;55581;46.718;7.690;2022-09-03T19:25:02;4.00;;;1.50;;
68608;SDS011;55581;46.718;7.690;2022-09-03T19:47:35;8.17;;;2.57;;
68608;SDS011;55581;46.718;7.690;2022-09-03T19:50:28;4.47;;;1.50;;
68608;SDS011;55581;46.718;7.690;2022-09-03T19:53:17;5.15;;;1.02;;
68608;SDS011;55581;46.718;7.690;2022-09-03T19:56:09;12.65;;;2.15;;
68608;SDS011;55581;46.718;7.690;2022-09-03T19:59:06;5.70;;;1.25;;
68608;SDS011;55581;46.718;7.690;2022-09-03T20:01:55;6.43;;;1.43;;
68608;SDS011;55581;46.718;7.690;2022-09-03T20:04:56;4.13;;;0.95;;
68608;SDS011;55581;46.718;7.690;2022-09-03T20:07:43;4.53;;;0.80;;
68608;SDS011;55581;46.718;7.690;2022-09-03T20:10:33;3.25;;;0.88;;
68608;SDS011;55581;46.718;7.690;2022-09-03T20:13:07;6.82;;;1.08;;
68608;SDS011;55581;46.718;7.690;2022-09-03T20:16:01;2.23;;;0.63;;
68608;SDS011;55581;46.718;7.690;2022-09-03T20:21:19;3.47;;;0.90;;
68608;SDS011;55581;46.718;7.690;2022-09-03T20:27:13;3.53;;;1.20;;
68608;SDS011;55581;46.718;7.690;2022-09-03T20:51:28;4.55;;;1.30;;
68608;SDS011;55581;46.718;7.690;2022-09-03T21:07:48;4.80;;;1.38;;
68608;SDS011;55581;46.718;7.690;2022-09-03T21:10:33;4.15;;;1.40;;
68608;SDS011;55581;46.718;7.690;2022-09-03T21:13:09;3.93;;;1.60;;
68608;SDS011;55581;46.718;7.690;2022-09-03T21:16:02;4.20;;;1.30;;
68608;SDS011;55581;46.718;7.690;2022-09-03T21:21:10;4.25;;;1.52;;
68608;SDS011;55581;46.718;7.690;2022-09-03T21:26:14;3.57;;;1.33;;
68608;SDS011;55581;46.718;7.690;2022-09-03T21:28:54;4.15;;;1.20;;
68608;SDS011;55581;46.718;7.690;2022-09-03T21:34:24;3.85;;;1.20;;
68608;SDS011;55581;46.718;7.690;2022-09-03T21:36:55;4.63;;;1.10;;
68608;SDS011;55581;46.718;7.690;2022-09-03T21:44:48;3.80;;;1.33;;
68608;SDS011;55581;46.718;7.690;2022-09-03T21:47:18;5.38;;;1.25;;
68608;SDS011;55581;46.718;7.690;2022-09-03T21:52:18;3.30;;;1.10;;
68608;SDS011;55581;46.718;7.690;2022-09-03T21:54:49;4.13;;;1.35;;
68608;SDS011;55581;46.718;7.690;2022-09-03T22:02:35;3.42;;;1.40;;
68608;SDS011;55581;46.718;7.690;2022-09-03T22:05:02;5.35;;;1.17;;
68608;SDS011;55581;46.718;7.690;2022-09-03T22:07:42;3.72;;;1.25;;
68608;SDS011;55581;46.718;7.690;2022-09-03T22:10:57;4.10;;;1.37;;
68608;SDS011;55581;46.718;7.690;2022-09-03T22:13:48;4.55;;;1.00;;
68608;SDS011;55581;46.718;7.690;2022-09-03T22:16:34;4.85;;;1.20;;
68608;SDS011;55581;46.718;7.690;2022-09-03T22:19:05;4.05;;;1.10;;
68608;SDS011;55581;46.718;7.690;2022-09-03T22:27:25;5.32;;;1.90;;
68608;SDS011;55581;46.718;7.690;2022-09-03T22:40:39;3.70;;;1.40;;
68608;SDS011;55581;46.718;7.690;2022-09-03T22:51:15;3.67;;;1.43;;
68608;SDS011;55581;46.718;7.690;2022-09-03T22:53:57;3.40;;;1.30;;
68608;SDS011;55581;46.718;7.690;2022-09-03T22:56:33;3.70;;;1.42;;
68608;SDS011;55581;46.718;7.690;2022-09-03T22:59:19;4.93;;;1.30;;
68608;SDS011;55581;46.718;7.690;2022-09-03T23:01:55;6.05;;;1.20;;
68608;SDS011;55581;46.718;7.690;2022-09-03T23:04:39;4.60;;;1.43;;
68608;SDS011;55581;46.718;7.690;2022-09-03T23:07:26;5.68;;;1.60;;
68608;SDS011;55581;46.718;7.690;2022-09-03T23:10:08;3.55;;;1.50;;
68608;SDS011;55581;46.718;7.690;2022-09-03T23:12:43;3.50;;;1.60;;
68608;SDS011;55581;46.718;7.690;2022-09-03T23:15:18;4.53;;;1.70;;
68608;SDS011;55581;46.718;7.690;2022-09-03T23:18:10;4.40;;;1.43;;
68608;SDS011;55581;46.718;7.690;2022-09-03T23:20:39;4.97;;;1.40;;
68608;SDS011;55581;46.718;7.690;2022-09-03T23:23:21;5.35;;;1.50;;
68608;SDS011;55581;46.718;7.690;2022-09-03T23:26:02;2.88;;;1.10;;
68608;SDS011;55581;46.718;7.690;2022-09-03T23:28:48;4.15;;;1.30;;
68608;SDS011;55581;46.718;7.690;2022-09-03T23:31:25;4.33;;;1.37;;
68608;SDS011;55581;46.718;7.690;2022-09-03T23:33:51;3.97;;;1.60;;
68608;SDS011;55581;46.718;7.690;2022-09-03T23:42:06;6.05;;;1.42;;
68608;SDS011;55581;46.718;7.690;2022-09-03T23:45:24;4.00;;;1.33;;